createdAt,value
2018-08-03T00:01:46.267Z,21.23
2018-08-03T00:04:14.474Z,20.97
2018-08-03T00:09:16.304Z,21.00
2018-08-03T00:11:44.278Z,20.50
2018-08-03T00:14:13.000Z,21.23
2018-08-03T00:16:41.542Z,21.33
2018-08-03T00:19:10.518Z,22.82
2018-08-03T00:21:38.736Z,22.00
2018-08-03T00:24:07.146Z,20.43
2018-08-03T00:26:35.346Z,20.72
2018-08-03T00:29:03.934Z,20.23
2018-08-03T00:31:32.339Z,21.20
2018-08-03T00:34:00.882Z,19.65
2018-08-03T00:36:29.315Z,19.42
2018-08-03T00:38:57.533Z,20.10
2018-08-03T00:41:26.052Z,20.70
2018-08-03T00:43:54.227Z,20.97
2018-08-03T00:46:22.838Z,20.37
2018-08-03T00:48:51.146Z,19.12
2018-08-03T00:51:19.415Z,19.45
2018-08-03T00:53:48.358Z,19.95
2018-08-03T00:56:17.034Z,19.02
2018-08-03T00:58:46.279Z,20.17
2018-08-03T01:01:14.483Z,19.55
2018-08-03T01:03:43.298Z,20.35
2018-08-03T01:06:11.457Z,19.65
2018-08-03T01:08:39.633Z,20.05
2018-08-03T01:11:07.994Z,20.05
2018-08-03T01:13:36.423Z,19.37
2018-08-03T01:16:04.935Z,19.52
2018-08-03T01:18:33.692Z,19.15
2018-08-03T01:21:01.652Z,20.68
2018-08-03T01:23:30.638Z,19.45
2018-08-03T01:25:59.034Z,19.15
2018-08-03T01:28:27.197Z,20.10
2018-08-03T01:30:56.136Z,20.88
2018-08-03T01:33:24.674Z,19.27
2018-08-03T01:35:53.141Z,19.10
2018-08-03T01:38:21.317Z,20.25
2018-08-03T01:40:49.517Z,19.50
2018-08-03T01:43:18.544Z,19.70
2018-08-03T01:45:46.788Z,19.75
2018-08-03T01:48:14.937Z,19.65
2018-08-03T01:50:43.354Z,18.73
2018-08-03T01:53:12.379Z,19.75
2018-08-03T01:55:40.600Z,17.85
2018-08-03T01:58:08.762Z,18.10
2018-08-03T02:00:42.778Z,19.20
2018-08-03T02:03:10.951Z,18.42
2018-08-03T02:05:39.110Z,18.87
2018-08-03T02:08:07.317Z,18.67
2018-08-03T02:10:35.252Z,18.20
2018-08-03T02:13:03.598Z,18.62
2018-08-03T02:15:32.491Z,18.07
2018-08-03T02:18:00.846Z,18.20
2018-08-03T02:20:28.782Z,19.32
2018-08-03T02:22:57.278Z,19.07
2018-08-03T02:25:26.355Z,17.85
2018-08-03T02:27:54.534Z,16.97
2018-08-03T02:30:22.776Z,19.17
2018-08-03T02:32:51.856Z,19.32
2018-08-03T02:35:19.829Z,18.37
2018-08-03T02:37:47.793Z,18.75
2018-08-03T02:40:16.084Z,19.15
2018-08-03T02:42:44.653Z,18.42
2018-08-03T02:45:13.238Z,18.48
2018-08-03T02:47:41.618Z,19.32
2018-08-03T02:50:09.844Z,18.65
2018-08-03T02:52:38.207Z,19.27
2018-08-03T02:55:06.170Z,18.55
2018-08-03T02:57:34.974Z,17.62
2018-08-03T03:00:03.211Z,18.25
2018-08-03T03:02:31.423Z,19.02
2018-08-03T03:04:59.659Z,19.00
2018-08-03T03:07:27.924Z,20.02
2018-08-03T03:09:56.368Z,18.77
2018-08-03T03:12:24.697Z,17.75
2018-08-03T03:14:53.411Z,18.48
2018-08-03T03:17:21.998Z,18.30
2018-08-03T03:19:50.238Z,21.05
2018-08-03T03:22:18.558Z,18.30
2018-08-03T03:24:47.481Z,19.80
2018-08-03T03:27:16.099Z,18.05
2018-08-03T03:29:44.074Z,19.48
2018-08-03T03:32:12.853Z,20.35
2018-08-03T03:34:41.642Z,18.90
2018-08-03T03:37:09.706Z,17.48
2018-08-03T03:39:37.929Z,19.02
2018-08-03T03:42:06.424Z,18.87
2018-08-03T03:44:34.699Z,19.70
2018-08-03T03:47:02.991Z,18.70
2018-08-03T03:49:31.238Z,17.85
2018-08-03T03:51:59.178Z,19.00
2018-08-03T03:54:27.963Z,18.90
2018-08-03T03:56:56.787Z,18.42
2018-08-03T03:59:24.992Z,18.75
2018-08-03T04:01:52.973Z,19.07
2018-08-03T04:04:21.190Z,17.95
2018-08-03T04:06:49.521Z,17.67
2018-08-03T04:09:17.716Z,17.20
2018-08-03T04:11:46.110Z,18.25
2018-08-03T04:14:14.650Z,17.52
2018-08-03T04:16:56.614Z,17.98
2018-08-03T04:19:24.838Z,17.73
2018-08-03T04:21:52.785Z,17.85
2018-08-03T04:24:21.548Z,16.95
2018-08-03T04:26:49.785Z,17.35
2018-08-03T04:29:17.779Z,18.10
2018-08-03T04:31:46.043Z,18.05
2018-08-03T04:34:14.617Z,16.95
2018-08-03T04:36:42.590Z,17.73
2018-08-03T04:39:10.545Z,18.55
2018-08-03T04:41:38.947Z,17.87
2018-08-03T04:44:07.161Z,17.35
2018-08-03T04:46:35.430Z,18.20
2018-08-03T04:49:03.410Z,18.05
2018-08-03T04:51:32.091Z,18.20
2018-08-03T04:54:00.874Z,17.65
2018-08-03T04:56:29.384Z,17.92
2018-08-03T04:58:57.595Z,18.52
2018-08-03T05:01:29.771Z,17.35
2018-08-03T05:03:58.031Z,18.07
2018-08-03T05:06:26.235Z,18.37
2018-08-03T05:08:54.430Z,19.23
2018-08-03T05:11:23.016Z,18.15
2018-08-03T05:13:51.737Z,17.23
2018-08-03T05:16:19.986Z,17.25
2018-08-03T05:18:48.535Z,16.97
2018-08-03T05:21:16.816Z,17.07
2018-08-03T05:23:45.503Z,17.23
2018-08-03T05:26:13.730Z,17.65
2018-08-03T05:28:41.942Z,18.32
2018-08-03T05:31:10.163Z,17.37
2018-08-03T05:33:38.703Z,18.00
2018-08-03T05:36:06.970Z,17.55
2018-08-03T05:38:35.291Z,17.40
2018-08-03T05:41:03.533Z,17.77
2018-08-03T05:43:31.722Z,16.70
2018-08-03T05:46:00.019Z,16.97
2018-08-03T05:48:28.354Z,16.77
2018-08-03T05:50:56.594Z,16.15
2018-08-03T05:53:25.208Z,16.32
2018-08-03T05:55:53.402Z,16.02
2018-08-03T05:58:28.409Z,16.17
2018-08-03T06:00:56.633Z,15.93
2018-08-03T06:03:24.847Z,16.20
2018-08-03T06:06:04.370Z,15.50
2018-08-03T06:08:32.936Z,15.28
2018-08-03T06:11:01.179Z,15.05
2018-08-03T06:13:29.730Z,14.90
2018-08-03T06:15:58.607Z,15.35
2018-08-03T06:18:27.033Z,14.98
2018-08-03T06:20:55.622Z,14.58
2018-08-03T06:23:24.338Z,14.35
2018-08-03T06:25:52.567Z,14.58
2018-08-03T06:28:20.824Z,14.75
2018-08-03T06:30:49.066Z,14.78
2018-08-03T06:33:17.902Z,13.90
2018-08-03T06:35:45.866Z,13.90
2018-08-03T06:38:14.751Z,13.85
2018-08-03T06:40:42.902Z,13.93
2018-08-03T06:43:11.228Z,15.23
2018-08-03T06:45:39.584Z,13.85
2018-08-03T06:48:08.353Z,13.90
2018-08-03T06:50:36.768Z,14.00
2018-08-03T06:53:06.096Z,13.80
2018-08-03T06:55:34.494Z,13.18
2018-08-03T06:58:02.929Z,13.45
2018-08-03T07:00:31.624Z,12.82
2018-08-03T07:03:00.334Z,12.63
2018-08-03T07:05:28.496Z,13.00
2018-08-03T07:07:56.695Z,12.95
2018-08-03T07:10:25.098Z,13.03
2018-08-03T07:12:54.394Z,12.98
2018-08-03T07:15:22.777Z,11.93
2018-08-03T07:17:51.138Z,11.43
2018-08-03T07:20:19.595Z,10.78
2018-08-03T07:22:47.675Z,11.05
2018-08-03T07:25:16.384Z,11.08
2018-08-03T07:30:14.202Z,11.95
2018-08-03T07:32:43.342Z,10.93
2018-08-03T07:35:11.534Z,10.35
2018-08-03T07:37:39.965Z,9.88
2018-08-03T07:40:08.950Z,10.32
2018-08-03T07:42:37.719Z,9.40
2018-08-03T07:45:06.015Z,9.93
2018-08-03T07:47:34.234Z,10.20
2018-08-03T07:50:02.519Z,9.65
2018-08-03T07:52:31.419Z,9.00
2018-08-03T07:54:59.565Z,9.33
2018-08-03T07:57:27.768Z,10.35
2018-08-03T07:59:55.995Z,9.73
2018-08-03T08:02:24.378Z,9.90
2018-08-03T08:04:52.582Z,9.03
2018-08-03T08:07:20.783Z,9.05
2018-08-03T08:09:49.019Z,7.58
2018-08-03T08:12:17.264Z,7.85
2018-08-03T08:14:45.787Z,8.65
2018-08-03T08:17:14.455Z,7.33
2018-08-03T08:19:42.654Z,8.18
2018-08-03T08:22:10.838Z,8.28
2018-08-03T08:24:39.022Z,8.53
2018-08-03T08:27:07.848Z,8.40
2018-08-03T08:29:36.536Z,7.70
2018-08-03T08:32:04.748Z,8.05
2018-08-03T08:34:33.535Z,8.25
2018-08-03T08:37:02.268Z,8.43
2018-08-03T08:39:30.444Z,7.20
2018-08-03T08:41:58.664Z,7.25
2018-08-03T08:44:26.875Z,7.70
2018-08-03T08:46:55.103Z,7.67
2018-08-03T08:49:23.379Z,7.40
2018-08-03T08:51:51.665Z,6.47
2018-08-03T08:54:20.658Z,6.72
2018-08-03T08:56:48.860Z,7.12
2018-08-03T08:59:17.695Z,7.70
2018-08-03T09:01:45.895Z,7.20
2018-08-03T09:04:14.086Z,6.65
2018-08-03T09:06:42.340Z,6.25
2018-08-03T09:09:11.442Z,6.25
2018-08-03T09:11:40.051Z,6.00
2018-08-03T09:14:08.723Z,7.10
2018-08-03T09:16:37.505Z,6.95
2018-08-03T09:21:38.436Z,7.50
2018-08-03T09:24:07.298Z,7.12
2018-08-03T09:26:35.599Z,6.87
2018-08-03T09:29:03.819Z,6.62
2018-08-03T09:31:32.331Z,6.30
2018-08-03T09:34:00.996Z,6.83
2018-08-03T09:36:29.288Z,5.62
2018-08-03T09:38:57.431Z,5.97
2018-08-03T09:41:25.651Z,6.37
2018-08-03T09:43:53.866Z,5.65
2018-08-03T09:46:22.274Z,5.97
2018-08-03T09:48:50.639Z,6.47
2018-08-03T09:51:18.864Z,6.30
2018-08-03T09:53:47.323Z,7.10
2018-08-03T09:56:15.554Z,6.40
2018-08-03T09:58:43.807Z,6.25
2018-08-03T10:01:12.930Z,5.42
2018-08-03T10:03:42.663Z,5.92
2018-08-03T10:06:11.630Z,5.45
2018-08-03T10:08:39.828Z,5.50
2018-08-03T10:11:08.949Z,5.20
2018-08-03T10:13:37.546Z,5.50
2018-08-03T10:16:06.067Z,5.45
2018-08-03T10:18:34.906Z,5.22
2018-08-03T10:21:03.708Z,4.85
2018-08-03T10:23:31.898Z,5.55
2018-08-03T10:26:00.094Z,5.42
2018-08-03T10:28:28.430Z,4.85
2018-08-03T10:30:56.614Z,4.90
2018-08-03T10:33:25.069Z,4.30
2018-08-03T10:35:53.298Z,4.03
2018-08-03T10:38:21.498Z,4.10
2018-08-03T10:40:49.687Z,4.00
2018-08-03T10:43:17.911Z,4.22
2018-08-03T10:45:46.201Z,3.70
2018-08-03T10:48:14.418Z,4.40
2018-08-03T10:50:42.632Z,3.98
2018-08-03T10:53:11.136Z,4.60
2018-08-03T10:55:39.330Z,4.03
2018-08-03T10:58:07.519Z,4.30
2018-08-03T11:00:35.765Z,4.17
2018-08-03T11:03:03.967Z,4.20
2018-08-03T11:05:32.240Z,4.90
2018-08-03T11:08:00.728Z,4.75
2018-08-03T11:10:31.156Z,4.37
2018-08-03T11:13:00.037Z,4.72
2018-08-03T11:15:28.918Z,4.35
2018-08-03T11:17:57.742Z,3.95
2018-08-03T11:20:26.353Z,4.12
2018-08-03T11:22:54.558Z,3.47
2018-08-03T11:25:22.758Z,4.22
2018-08-03T11:27:50.987Z,4.00
2018-08-03T11:30:19.214Z,4.92
2018-08-03T11:32:48.208Z,4.20
2018-08-03T11:35:16.475Z,4.50
2018-08-03T11:37:44.627Z,3.83
2018-08-03T11:40:12.877Z,4.50
2018-08-03T11:42:41.085Z,4.53
2018-08-03T11:45:10.093Z,4.62
2018-08-03T11:47:38.343Z,5.15
2018-08-03T11:50:07.689Z,4.78
2018-08-03T11:52:36.480Z,5.37
2018-08-03T11:55:04.691Z,4.50
2018-08-03T11:57:32.930Z,4.08
2018-08-03T12:00:01.156Z,3.98
2018-08-03T12:02:29.357Z,4.30
2018-08-03T12:04:57.963Z,4.03
2018-08-03T12:07:26.162Z,4.45
2018-08-03T12:09:54.366Z,4.03
2018-08-03T12:12:22.601Z,4.28
2018-08-03T12:14:51.116Z,4.17
2018-08-03T12:17:19.947Z,3.65
2018-08-03T12:19:48.203Z,3.67
2018-08-03T12:22:16.858Z,3.80
2018-08-03T12:24:45.150Z,4.00
2018-08-03T12:27:13.370Z,4.37
2018-08-03T12:29:41.726Z,4.37
2018-08-03T12:32:09.951Z,4.10
2018-08-03T12:34:38.977Z,3.70
2018-08-03T12:37:07.226Z,3.55
2018-08-03T12:39:35.414Z,3.58
2018-08-03T12:42:04.304Z,4.10
2018-08-03T12:44:32.504Z,4.30
2018-08-03T12:47:00.699Z,4.33
2018-08-03T12:49:28.932Z,5.00
2018-08-03T12:51:57.820Z,5.55
2018-08-03T12:54:26.200Z,5.50
2018-08-03T12:56:54.401Z,5.60
2018-08-03T12:59:22.607Z,5.80
2018-08-03T13:01:50.875Z,6.03
2018-08-03T13:04:19.147Z,5.80
2018-08-03T13:06:47.378Z,6.12
2018-08-03T13:09:15.594Z,5.90
2018-08-03T13:11:43.791Z,5.90
2018-08-03T13:14:12.556Z,5.97
2018-08-03T13:16:41.271Z,5.95
2018-08-03T13:19:10.219Z,5.67
2018-08-03T13:21:40.035Z,6.70
2018-08-03T13:24:08.231Z,6.40
2018-08-03T13:26:36.421Z,6.22
2018-08-03T13:29:04.747Z,6.47
2018-08-03T13:31:33.024Z,6.12
2018-08-03T13:34:01.799Z,6.55
2018-08-03T13:36:30.835Z,6.60
2018-08-03T13:38:59.052Z,6.55
2018-08-03T13:41:27.666Z,6.30
2018-08-03T13:43:55.888Z,6.35
2018-08-03T13:46:24.091Z,6.12
2018-08-03T13:48:52.302Z,6.12
2018-08-03T13:51:20.614Z,6.53
2018-08-03T13:53:49.598Z,6.67
2018-08-03T13:56:18.374Z,6.53
2018-08-03T13:58:47.142Z,7.05
2018-08-03T14:01:26.895Z,6.50
2018-08-03T14:03:55.123Z,6.20
2018-08-03T14:06:23.372Z,6.12
2018-08-03T14:08:51.567Z,6.58
2018-08-03T14:11:20.103Z,6.80
2018-08-03T14:13:49.139Z,6.28
2018-08-03T14:16:17.575Z,6.35
2018-08-03T14:18:47.419Z,6.60
2018-08-03T14:21:16.219Z,6.58
2018-08-03T14:23:44.502Z,6.75
2018-08-03T14:26:12.722Z,6.72
2018-08-03T14:28:40.938Z,6.87
2018-08-03T14:31:09.719Z,5.97
2018-08-03T14:33:38.111Z,6.65
2018-08-03T14:36:06.847Z,6.25
2018-08-03T14:38:35.063Z,6.15
2018-08-03T14:41:03.251Z,6.20
2018-08-03T14:43:31.478Z,5.55
2018-08-03T14:45:59.663Z,5.62
2018-08-03T14:48:27.932Z,5.35
2018-08-03T14:50:56.362Z,5.37
2018-08-03T14:53:25.091Z,4.80
2018-08-03T14:55:53.282Z,4.83
2018-08-03T14:58:21.491Z,5.55
2018-08-03T15:00:49.767Z,5.65
2018-08-03T15:03:17.946Z,5.35
2018-08-03T15:05:46.258Z,5.65
2018-08-03T15:08:14.437Z,5.25
2018-08-03T15:10:42.646Z,5.25
2018-08-03T15:13:11.454Z,5.00
2018-08-03T15:15:40.182Z,5.10
2018-08-03T15:18:08.595Z,5.12
2018-08-03T15:20:36.815Z,5.17
2018-08-03T15:23:05.548Z,5.47
2018-08-03T15:25:34.194Z,5.55
2018-08-03T15:28:02.755Z,5.62
2018-08-03T15:30:30.960Z,5.25
2018-08-03T15:32:59.418Z,5.62
2018-08-03T15:35:27.599Z,5.55
2018-08-03T15:37:55.818Z,5.67
2018-08-03T15:40:24.060Z,5.22
2018-08-03T15:42:52.499Z,5.42
2018-08-03T15:45:20.737Z,5.33
2018-08-03T15:47:48.965Z,5.58
2018-08-03T15:50:17.159Z,5.55
2018-08-03T15:52:45.961Z,5.20
2018-08-03T15:55:14.090Z,4.78
2018-08-03T15:57:42.345Z,4.87
2018-08-03T16:00:10.614Z,5.28
2018-08-03T16:02:38.549Z,5.20
2018-08-03T16:05:07.468Z,5.10
2018-08-03T16:07:35.686Z,5.30
2018-08-03T16:10:03.955Z,5.35
2018-08-03T16:12:32.204Z,5.53
2018-08-03T16:15:07.051Z,5.60
2018-08-03T16:17:35.514Z,5.80
2018-08-03T16:20:04.259Z,6.05
2018-08-03T16:22:32.795Z,6.25
2018-08-03T16:25:00.754Z,5.80
2018-08-03T16:27:28.966Z,6.22
2018-08-03T16:29:56.952Z,5.65
2018-08-03T16:32:29.703Z,6.33
2018-08-03T16:34:57.670Z,6.30
2018-08-03T16:37:25.867Z,5.87
2018-08-03T16:39:53.833Z,6.15
2018-08-03T16:42:22.419Z,6.03
2018-08-03T16:44:50.402Z,6.20
2018-08-03T16:47:18.409Z,6.17
2018-08-03T16:49:46.615Z,6.92
2018-08-03T16:52:22.035Z,6.35
2018-08-03T16:54:50.258Z,6.65
2018-08-03T16:57:18.449Z,6.42
2018-08-03T16:59:46.706Z,6.45
2018-08-03T17:02:14.926Z,6.65
2018-08-03T17:04:42.989Z,6.17
2018-08-03T17:07:11.242Z,6.10
2018-08-03T17:09:39.855Z,6.65
2018-08-03T17:12:08.087Z,6.17
2018-08-03T17:14:36.528Z,5.90
2018-08-03T17:17:04.788Z,6.30
2018-08-03T17:19:32.994Z,5.90
2018-08-03T17:22:01.378Z,5.53
2018-08-03T17:24:29.355Z,6.20
2018-08-03T17:26:57.320Z,5.97
2018-08-03T17:29:25.329Z,7.10
2018-08-03T17:31:54.431Z,6.03
2018-08-03T17:34:23.137Z,6.33
2018-08-03T17:36:51.369Z,6.22
2018-08-03T17:39:19.334Z,6.28
2018-08-03T17:41:47.936Z,5.87
2018-08-03T17:44:15.950Z,6.42
2018-08-03T17:46:44.138Z,6.75
2018-08-03T17:49:12.503Z,5.60
2018-08-03T17:51:40.717Z,5.70
2018-08-03T17:54:09.372Z,5.72
2018-08-03T17:56:37.982Z,6.30
2018-08-03T17:59:06.222Z,6.70
2018-08-03T18:01:34.442Z,6.60
2018-08-03T18:04:02.859Z,6.33
2018-08-03T18:06:31.147Z,7.28
2018-08-03T18:08:59.197Z,7.10
2018-08-03T18:11:27.442Z,6.90
2018-08-03T18:13:55.927Z,7.50
2018-08-03T18:16:24.350Z,7.50
2018-08-03T18:18:52.870Z,7.15
2018-08-03T18:21:20.809Z,6.92
2018-08-03T18:23:49.510Z,6.87
2018-08-03T18:26:17.726Z,7.35
2018-08-03T18:28:45.703Z,7.50
2018-08-03T18:31:14.134Z,7.20
2018-08-03T18:33:42.668Z,7.50
2018-08-03T18:36:10.923Z,7.22
2018-08-03T18:38:39.153Z,7.92
2018-08-03T18:41:07.705Z,8.03
2018-08-03T18:43:36.371Z,7.53
2018-08-03T18:46:04.603Z,9.43
2018-08-03T18:48:32.867Z,8.58
2018-08-03T18:51:00.874Z,7.97
2018-08-03T18:53:29.474Z,7.45
2018-08-03T18:55:58.062Z,7.95
2018-08-03T18:58:26.358Z,7.85
2018-08-03T19:00:54.683Z,8.38
2018-08-03T19:03:22.728Z,9.40
2018-08-03T19:05:50.970Z,9.05
2018-08-03T19:08:19.443Z,9.30
2018-08-03T19:10:47.770Z,9.13
2018-08-03T19:13:16.310Z,8.63
2018-08-03T19:15:45.145Z,8.68
2018-08-03T19:18:13.952Z,8.28
2018-08-03T19:20:42.178Z,8.10
2018-08-03T19:23:10.739Z,7.70
2018-08-03T19:25:38.681Z,8.45
2018-08-03T19:28:06.898Z,8.15
2018-08-03T19:30:35.385Z,7.80
2018-08-03T19:33:03.919Z,9.08
2018-08-03T19:35:32.179Z,9.10
2018-08-03T19:38:00.405Z,9.13
2018-08-03T19:40:28.698Z,8.20
2018-08-03T19:42:57.043Z,8.45
2018-08-03T19:45:25.248Z,8.78
2018-08-03T19:47:53.521Z,8.48
2018-08-03T19:50:21.797Z,8.08
2018-08-03T19:52:50.739Z,8.33
2018-08-03T19:55:18.976Z,8.28
2018-08-03T19:57:47.208Z,8.70
2018-08-03T20:00:15.627Z,8.28
2018-08-03T20:02:43.820Z,8.65
2018-08-03T20:05:12.248Z,8.63
2018-08-03T20:07:40.424Z,8.48
2018-08-03T20:10:08.778Z,8.40
2018-08-03T20:12:37.042Z,8.45
2018-08-03T20:15:08.791Z,8.43
2018-08-03T20:17:37.319Z,8.93
2018-08-03T20:20:05.274Z,8.78
2018-08-03T20:22:42.590Z,8.60
2018-08-03T20:25:10.543Z,8.45
2018-08-03T20:27:38.817Z,9.13
2018-08-03T20:30:07.542Z,8.65
2018-08-03T20:32:35.898Z,9.35
2018-08-03T20:35:04.327Z,8.55
2018-08-03T20:37:32.534Z,8.58
2018-08-03T20:40:00.765Z,8.83
2018-08-03T20:42:28.874Z,9.13
2018-08-03T20:44:57.139Z,8.80
2018-08-03T20:47:25.095Z,8.63
2018-08-03T20:49:53.079Z,9.25
2018-08-03T20:52:23.523Z,8.83
2018-08-03T20:54:51.729Z,9.08
2018-08-03T20:57:20.211Z,8.83
2018-08-03T20:59:48.858Z,8.28
2018-08-03T21:02:16.834Z,8.38
2018-08-03T21:04:45.008Z,8.75
2018-08-03T21:07:13.282Z,8.80
2018-08-03T21:09:41.241Z,9.70
2018-08-03T21:12:09.441Z,8.68
2018-08-03T21:14:37.834Z,9.20
2018-08-03T21:17:06.200Z,8.70
2018-08-03T21:19:34.746Z,8.80
2018-08-03T21:22:03.162Z,9.48
2018-08-03T21:24:31.782Z,8.45
2018-08-03T21:29:21.266Z,9.30
2018-08-03T21:31:49.577Z,9.48
2018-08-03T21:34:18.368Z,9.53
2018-08-03T21:36:46.883Z,9.70
2018-08-03T21:39:15.082Z,10.10
2018-08-03T21:41:48.690Z,9.33
2018-08-03T21:44:17.108Z,9.70
2018-08-03T21:46:45.064Z,9.50
2018-08-03T21:49:13.251Z,10.35
2018-08-03T21:51:41.208Z,9.55
2018-08-03T21:54:09.697Z,10.20
2018-08-03T21:56:37.646Z,10.20
2018-08-03T21:59:05.984Z,10.13
2018-08-03T22:01:34.259Z,10.55
2018-08-03T22:04:02.470Z,10.32
2018-08-03T22:06:31.367Z,10.00
2018-08-03T22:09:00.580Z,10.18
2018-08-03T22:11:28.806Z,10.08
2018-08-03T22:13:58.053Z,10.63
2018-08-03T22:16:26.554Z,11.03
2018-08-03T22:18:55.333Z,11.12
2018-08-03T22:21:23.463Z,10.55
2018-08-03T22:23:51.774Z,9.78
2018-08-03T22:26:21.322Z,10.65
2018-08-03T22:28:49.552Z,10.78
2018-08-03T22:31:17.993Z,10.50
2018-08-03T22:33:46.739Z,10.98
2018-08-03T22:36:17.906Z,10.53
2018-08-03T22:38:46.946Z,10.23
2018-08-03T22:41:14.993Z,10.50
2018-08-03T22:43:43.216Z,10.40
2018-08-03T22:46:11.201Z,10.65
2018-08-03T22:48:40.104Z,9.95
2018-08-03T22:51:08.334Z,10.80
2018-08-03T22:53:36.695Z,10.38
2018-08-03T22:56:04.926Z,10.95
2018-08-03T22:58:33.104Z,10.75
2018-08-03T23:01:01.385Z,10.10
2018-08-03T23:03:29.353Z,10.53
2018-08-03T23:05:58.216Z,10.78
2018-08-03T23:08:26.703Z,10.60
2018-08-03T23:10:54.919Z,10.18
2018-08-03T23:15:58.046Z,10.20
2018-08-03T23:18:26.254Z,10.72
2018-08-03T23:20:54.547Z,9.88
2018-08-03T23:23:22.774Z,10.75
2018-08-03T23:25:51.347Z,10.65
2018-08-03T23:28:19.590Z,10.20
2018-08-03T23:30:47.787Z,10.13
2018-08-03T23:33:16.458Z,9.75
2018-08-03T23:35:45.385Z,11.20
2018-08-03T23:38:13.645Z,10.50
2018-08-03T23:40:41.826Z,10.28
2018-08-03T23:43:10.064Z,10.35
2018-08-03T23:45:38.278Z,10.63
2018-08-03T23:48:06.560Z,10.00
2018-08-03T23:50:34.853Z,10.60
2018-08-03T23:53:03.578Z,11.03
2018-08-03T23:55:32.242Z,10.80
2018-08-03T23:58:00.474Z,10.78
